Time;durP1;ratioP1;P1;durP2;ratioP2;P2;SDS_P1;SDS_P2;PMS_P1;PMS_P2;Temp;Humidity;BMP_temperature;BMP_pressure;BME280_temperature;BME280_humidity;BME280_pressure;Samples;Min_cycle;Max_cycle;Signal;HPM_P1;HPM_P2
2023/05/09 00:01:14;;;;;;;32.03;22.23;;;14.60;97.50;;;;;;4589408;19;20014;-23
2023/05/09 00:02:46;;;;;;;31.23;22.13;;;14.60;97.40;;;;;;4590792;19;20026;-23
2023/05/09 00:04:18;;;;;;;30.98;20.70;;;14.60;97.50;;;;;;4591461;19;20002;-23
2023/05/09 00:05:50;;;;;;;30.97;21.73;;;14.60;97.40;;;;;;4590428;19;20010;-23
2023/05/09 00:07:21;;;;;;;29.88;21.05;;;14.60;97.40;;;;;;4590526;19;20155;-23
2023/05/09 00:08:54;;;;;;;29.35;21.15;;;14.60;97.40;;;;;;4591236;19;20070;-23
2023/05/09 00:10:26;;;;;;;30.25;20.30;;;14.60;97.40;;;;;;4589479;19;20386;-23
2023/05/09 00:11:57;;;;;;;28.13;21.03;;;14.70;97.40;;;;;;4590012;19;20011;-23
2023/05/09 00:13:29;;;;;;;28.43;22.50;;;14.60;97.40;;;;;;4590718;19;20015;-23
2023/05/09 00:15:01;;;;;;;33.50;22.90;;;14.60;97.40;;;;;;4590924;19;20033;-23
2023/05/09 00:16:32;;;;;;;36.17;23.67;;;14.60;97.30;;;;;;4590076;19;20024;-23
2023/05/09 00:18:04;;;;;;;28.38;22.13;;;14.60;97.30;;;;;;4590580;19;20488;-23
2023/05/09 00:19:37;;;;;;;34.00;24.07;;;14.60;97.30;;;;;;4590420;19;20010;-23
2023/05/09 00:21:09;;;;;;;;;;;14.60;97.20;;;;;;4592007;19;20003;-23
2023/05/09 00:22:41;;;;;;;35.90;24.70;;;14.60;97.20;;;;;;4589960;19;19915;-23
2023/05/09 00:24:13;;;;;;;32.80;22.73;;;14.60;97.00;;;;;;4590284;19;20014;-23
2023/05/09 00:25:45;;;;;;;32.17;21.55;;;14.60;97.00;;;;;;4590353;19;20460;-23
2023/05/09 00:27:16;;;;;;;30.80;22.60;;;14.60;97.00;;;;;;4590737;19;20026;-23
2023/05/09 00:28:47;;;;;;;29.92;22.35;;;14.60;97.10;;;;;;4590080;19;20022;-23
2023/05/09 00:30:19;;;;;;;31.85;22.55;;;14.60;97.10;;;;;;4589176;19;20015;-23
2023/05/09 00:31:51;;;;;;;33.87;23.03;;;14.60;97.00;;;;;;4588802;19;20477;-23
2023/05/09 00:33:25;;;;;;;28.57;19.80;;;14.60;97.00;;;;;;4589982;19;20007;-23
2023/05/09 00:34:57;;;;;;;27.37;20.87;;;14.50;96.90;;;;;;4589947;19;20017;-23
2023/05/09 00:36:31;;;;;;;28.50;20.77;;;14.50;96.90;;;;;;4590382;19;20468;-23
2023/05/09 00:38:03;;;;;;;34.70;25.93;;;14.60;97.00;;;;;;4590146;19;20006;-23
2023/05/09 00:39:33;;;;;;;35.75;27.77;;;14.50;97.00;;;;;;4588793;19;20072;-23
2023/05/09 00:41:05;;;;;;;34.85;24.52;;;14.60;97.10;;;;;;4589519;19;20014;-23
2023/05/09 00:42:38;;;;;;;35.93;23.50;;;14.50;97.00;;;;;;4590266;19;20006;-23
2023/05/09 00:44:09;;;;;;;29.70;22.20;;;14.50;96.80;;;;;;4588767;19;20056;-23
2023/05/09 00:45:42;;;;;;;30.47;21.63;;;14.50;96.80;;;;;;4589021;19;20468;-23
2023/05/09 00:47:13;;;;;;;29.97;22.40;;;14.50;96.80;;;;;;4589661;19;20006;-23
2023/05/09 00:49:03;;;;;;;36.05;23.50;;;14.50;96.90;;;;;;4590245;19;20011;-23
2023/05/09 00:50:36;;;;;;;31.77;23.13;;;14.50;96.90;;;;;;4594529;19;20018;-23
2023/05/09 00:52:08;;;;;;;32.87;22.87;;;14.50;96.80;;;;;;4593492;19;20041;-23
2023/05/09 00:53:39;;;;;;;30.95;21.75;;;14.50;96.80;;;;;;4592780;19;20018;-23
2023/05/09 00:55:12;;;;;;;34.43;23.23;;;14.50;96.80;;;;;;4593865;19;20038;-23
2023/05/09 00:56:43;;;;;;;32.58;23.75;;;14.50;96.80;;;;;;4595285;19;20437;-23
2023/05/09 00:58:14;;;;;;;34.92;24.23;;;14.50;96.90;;;;;;4593095;19;20014;-23
2023/05/09 00:59:46;;;;;;;37.33;25.50;;;14.50;96.90;;;;;;4593861;19;20014;-23
2023/05/09 01:01:18;;;;;;;34.57;23.60;;;14.50;96.80;;;;;;4592927;19;20010;-23
2023/05/09 01:02:52;;;;;;;33.23;24.30;;;14.50;96.80;;;;;;4593955;19;20409;-23
2023/05/09 01:04:24;;;;;;;35.00;24.67;;;14.50;96.70;;;;;;4593032;19;20018;-23
2023/05/09 01:06:12;;;;;;;32.33;23.70;;;14.50;96.60;;;;;;4593801;19;20014;-23
2023/05/09 01:07:44;;;;;;;38.90;24.50;;;14.50;96.50;;;;;;4593199;19;20056;-23
2023/05/09 01:09:24;;;;;;;38.35;25.40;;;14.40;96.40;;;;;;4593925;19;20381;-23
2023/05/09 01:11:14;;;;;;;39.63;25.57;;;14.50;96.40;;;;;;4593328;19;20007;-23
2023/05/09 01:12:53;;;;;;;38.80;26.67;;;14.50;96.70;;;;;;4592938;19;20010;-23
2023/05/09 01:14:49;;;;;;;36.23;25.57;;;14.40;96.30;;;;;;4591403;19;20018;-23
2023/05/09 01:16:33;;;;;;;39.23;26.17;;;14.40;96.40;;;;;;4592582;19;20488;-23
2023/05/09 01:18:27;;;;;;;40.17;26.93;;;14.40;96.30;;;;;;4593564;19;20349;-23
2023/05/09 01:20:12;;;;;;;39.10;25.13;;;14.40;96.40;;;;;;4593193;19;20010;-23
2023/05/09 01:21:44;;;;;;;38.33;26.87;;;14.40;96.20;;;;;;4594494;19;19999;-23
2023/05/09 01:23:29;;;;;;;41.05;27.95;;;14.40;96.20;;;;;;4592510;19;20010;-23
2023/05/09 01:25:05;;;;;;;39.40;26.67;;;14.40;96.20;;;;;;4593577;19;20491;-23
2023/05/09 01:26:44;;;;;;;39.33;26.90;;;14.40;96.30;;;;;;4593587;19;20366;-23
2023/05/09 01:28:48;;;;;;;40.70;27.67;;;14.40;96.40;;;;;;4594408;19;20018;-23
2023/05/09 01:30:20;;;;;;;40.47;27.10;;;14.40;96.40;;;;;;4593213;19;20003;-23
2023/05/09 01:31:53;;;;;;;37.83;26.23;;;14.40;96.10;;;;;;4593390;19;20349;-23
2023/05/09 01:33:26;;;;;;;42.60;27.87;;;14.40;96.10;;;;;;4592287;19;20006;-23
2023/05/09 01:35:00;;;;;;;44.77;27.27;;;14.40;96.10;;;;;;4591350;19;20028;-23
2023/05/09 01:36:32;;;;;;;42.67;27.60;;;14.40;96.10;;;;;;4591676;19;20033;-23
2023/05/09 01:38:10;;;;;;;41.97;28.63;;;14.40;96.10;;;;;;4591867;19;20003;-23
2023/05/09 01:39:44;;;;;;;43.40;28.83;;;14.40;96.20;;;;;;4591394;19;20026;-23
2023/05/09 01:41:16;;;;;;;45.17;28.90;;;14.40;96.20;;;;;;4591287;19;20018;-23
2023/05/09 01:42:56;;;;;;;48.70;30.30;;;14.40;96.20;;;;;;4590770;19;20160;-23
2023/05/09 01:44:30;;;;;;;44.77;28.13;;;14.40;96.10;;;;;;4591474;19;20031;-23
2023/05/09 01:46:01;;;;;;;42.33;27.90;;;14.40;96.10;;;;;;4590140;19;20015;-23
2023/05/09 01:47:33;;;;;;;42.50;28.15;;;14.40;96.10;;;;;;4591134;19;20029;-23
2023/05/09 01:49:05;;;;;;;44.70;28.45;;;14.40;96.00;;;;;;4591545;19;20019;-23
2023/05/09 01:50:36;;;;;;;42.33;28.53;;;14.40;95.90;;;;;;4590928;19;20018;-23
2023/05/09 01:52:10;;;;;;;46.63;30.37;;;14.40;96.00;;;;;;4591103;19;20007;-23
2023/05/09 01:53:44;;;;;;;43.20;27.70;;;14.40;96.00;;;;;;4591062;19;20019;-23
2023/05/09 01:55:15;;;;;;;35.67;24.75;;;14.40;96.00;;;;;;4591260;19;20005;-23
2023/05/09 01:56:49;;;;;;;41.37;26.67;;;14.40;96.00;;;;;;4591760;19;20014;-23
2023/05/09 01:58:20;;;;;;;37.58;27.33;;;14.40;96.00;;;;;;4591040;19;20011;-23
2023/05/09 01:59:52;;;;;;;43.13;26.77;;;14.30;96.00;;;;;;4591151;19;20015;-23
2023/05/09 02:01:23;;;;;;;38.70;25.98;;;14.40;95.90;;;;;;4588777;19;20103;-23
2023/05/09 02:02:55;;;;;;;39.30;24.73;;;14.40;95.80;;;;;;4591063;19;20483;-23
2023/05/09 02:04:26;;;;;;;36.47;24.63;;;14.30;95.60;;;;;;4590907;19;20074;-23
2023/05/09 02:06:00;;;;;;;38.17;23.53;;;14.30;95.50;;;;;;4590976;19;20011;-23
2023/05/09 02:07:32;;;;;;;33.73;22.77;;;14.30;95.60;;;;;;4592200;19;20011;-23
2023/05/09 02:09:05;;;;;;;34.97;21.70;;;14.30;95.70;;;;;;4592478;19;20367;-23
2023/05/09 02:10:37;;;;;;;31.17;21.03;;;14.30;95.70;;;;;;4592922;19;20487;-23
2023/05/09 02:12:09;;;;;;;30.42;20.90;;;14.40;95.80;;;;;;4592624;19;20006;-23
2023/05/09 02:13:41;;;;;;;33.80;22.33;;;14.30;95.80;;;;;;4592165;19;20017;-23
2023/05/09 02:15:14;;;;;;;33.27;22.60;;;14.30;95.70;;;;;;4591715;19;20473;-23
2023/05/09 02:16:46;;;;;;;29.27;20.00;;;14.30;95.70;;;;;;4592624;19;20357;-23
2023/05/09 02:18:18;;;;;;;34.40;22.95;;;14.40;95.50;;;;;;4591375;19;20060;-23
2023/05/09 02:19:52;;;;;;;30.47;20.03;;;14.30;95.40;;;;;;4590911;19;20030;-23
2023/05/09 02:21:24;;;;;;;29.73;21.37;;;14.30;95.40;;;;;;4593760;19;20011;-23
2023/05/09 02:22:56;;;;;;;28.10;21.20;;;14.30;95.60;;;;;;4592613;19;20464;-23
2023/05/09 02:24:27;;;;;;;30.67;20.77;;;14.30;95.30;;;;;;4591537;19;19998;-23
2023/05/09 02:26:00;;;;;;;30.93;22.67;;;14.30;95.30;;;;;;4591846;19;20007;-23
2023/05/09 02:27:33;;;;;;;34.03;25.13;;;14.30;95.30;;;;;;4591459;19;20014;-23
2023/05/09 02:29:05;;;;;;;36.17;23.33;;;14.30;95.20;;;;;;4591539;19;20010;-23
2023/05/09 02:30:42;;;;;;;28.53;21.77;;;14.30;95.20;;;;;;4591635;19;20026;-23
2023/05/09 02:32:18;;;;;;;37.93;25.10;;;14.30;95.20;;;;;;4591562;19;20014;-23
2023/05/09 02:33:50;;;;;;;35.77;24.30;;;14.30;95.20;;;;;;4590973;19;20010;-23
2023/05/09 02:35:22;;;;;;;31.57;22.63;;;14.30;95.10;;;;;;4591137;19;20021;-23
2023/05/09 02:36:53;;;;;;;32.05;23.80;;;14.30;95.20;;;;;;4592163;19;20018;-23
2023/05/09 02:38:26;;;;;;;34.30;24.37;;;14.30;95.10;;;;;;4592901;19;20011;-23
2023/05/09 02:39:59;;;;;;;29.90;21.77;;;14.30;95.10;;;;;;4592384;19;20087;-23
2023/05/09 02:41:30;;;;;;;29.05;21.10;;;14.30;95.00;;;;;;4591036;19;20051;-23
2023/05/09 02:43:03;;;;;;;30.70;21.83;;;14.30;95.00;;;;;;4590812;19;20014;-23
2023/05/09 02:44:35;;;;;;;29.33;22.75;;;14.30;95.00;;;;;;4591224;19;20032;-23
2023/05/09 02:46:08;;;;;;;29.63;22.63;;;14.20;94.90;;;;;;4591100;19;20018;-23
2023/05/09 02:47:41;;;;;;;30.07;20.80;;;14.20;94.90;;;;;;4592720;19;20014;-23
2023/05/09 02:49:14;;;;;;;29.60;22.30;;;14.30;94.90;;;;;;4592312;19;20414;-23
2023/05/09 02:50:46;;;;;;;34.43;25.47;;;14.20;94.90;;;;;;4591834;19;20357;-23
2023/05/09 02:52:20;;;;;;;35.40;24.23;;;14.20;94.80;;;;;;4590730;19;20040;-23
2023/05/09 02:53:51;;;;;;;32.13;23.60;;;14.20;94.80;;;;;;4591469;19;20007;-23
2023/05/09 02:55:24;;;;;;;28.17;20.67;;;14.20;94.80;;;;;;4590720;19;20019;-23
2023/05/09 02:56:58;;;;;;;24.57;18.43;;;14.20;94.90;;;;;;4591223;19;20070;-23
2023/05/09 02:58:30;;;;;;;28.83;20.43;;;14.20;94.90;;;;;;4592056;19;20010;-23
2023/05/09 03:00:02;;;;;;;24.63;18.67;;;14.20;95.00;;;;;;4592436;19;20023;-23
2023/05/09 03:01:34;;;;;;;24.20;18.73;;;14.20;95.00;;;;;;4592107;19;20108;-23
2023/05/09 03:03:07;;;;;;;28.50;20.43;;;14.20;94.90;;;;;;4591706;19;20017;-23
2023/05/09 03:04:39;;;;;;;26.58;20.27;;;14.20;95.00;;;;;;4591797;19;20357;-23
2023/05/09 03:06:10;;;;;;;25.65;19.55;;;14.20;95.00;;;;;;4591927;19;20469;-23
2023/05/09 03:07:41;;;;;;;31.05;20.30;;;14.20;94.90;;;;;;4592287;19;20019;-23
2023/05/09 03:09:12;;;;;;;27.60;20.08;;;14.20;94.80;;;;;;4591574;19;20393;-23
2023/05/09 03:10:44;;;;;;;31.00;21.97;;;14.20;94.70;;;;;;4592035;19;20047;-23
2023/05/09 03:12:16;;;;;;;32.05;22.88;;;14.20;94.70;;;;;;4590182;19;20006;-23
2023/05/09 03:13:47;;;;;;;37.25;24.63;;;14.20;94.70;;;;;;4591388;19;20003;-23
2023/05/09 03:15:20;;;;;;;35.77;24.47;;;14.20;94.70;;;;;;4591445;19;20011;-24
2023/05/09 03:16:53;;;;;;;33.70;24.17;;;14.20;94.70;;;;;;4591523;19;20011;-23
2023/05/09 03:18:24;;;;;;;35.60;24.77;;;14.20;94.70;;;;;;4592241;19;20018;-23
2023/05/09 03:19:56;;;;;;;36.20;25.03;;;14.20;94.70;;;;;;4590356;19;20396;-23
2023/05/09 03:21:30;;;;;;;34.93;24.13;;;14.20;94.70;;;;;;4591226;19;20357;-23
2023/05/09 03:23:03;;;;;;;35.73;24.47;;;14.20;94.70;;;;;;4591471;19;20372;-23
2023/05/09 03:24:34;;;;;;;34.45;23.42;;;14.20;94.90;;;;;;4592097;19;20010;-23
2023/05/09 03:26:07;;;;;;;39.77;25.07;;;14.20;94.90;;;;;;4590036;19;20018;-23
2023/05/09 03:27:38;;;;;;;42.22;28.05;;;14.20;95.00;;;;;;4590922;19;20014;-23
2023/05/09 03:29:14;;;;;;;48.00;32.13;;;14.20;95.10;;;;;;4591636;19;20018;-23
2023/05/09 03:30:47;;;;;;;46.73;34.07;;;14.20;95.10;;;;;;4591774;19;20006;-23
2023/05/09 03:32:18;;;;;;;55.30;42.50;;;14.20;95.10;;;;;;4589845;19;20128;-23
2023/05/09 03:33:49;;;;;;;55.80;40.45;;;14.20;95.00;;;;;;4590393;19;20039;-23
2023/05/09 03:35:22;;;;;;;51.07;38.00;;;14.20;95.00;;;;;;4591493;19;20011;-23
2023/05/09 03:36:53;;;;;;;52.55;38.38;;;14.20;95.00;;;;;;4593701;19;20011;-23
2023/05/09 03:38:24;;;;;;;51.72;41.38;;;14.20;94.90;;;;;;4591032;19;20014;-23
2023/05/09 03:39:55;;;;;;;48.25;36.17;;;14.20;94.90;;;;;;4590000;19;20352;-23
2023/05/09 03:41:26;;;;;;;43.78;30.45;;;14.20;95.10;;;;;;4591232;19;20062;-23
2023/05/09 03:42:57;;;;;;;45.75;33.05;;;14.20;95.00;;;;;;4592300;19;20374;-23
2023/05/09 03:44:30;;;;;;;49.80;38.70;;;14.20;95.00;;;;;;4593025;19;20010;-23
2023/05/09 03:46:02;;;;;;;57.47;44.93;;;14.30;95.00;;;;;;4592606;19;20014;-23
2023/05/09 03:47:33;;;;;;;56.20;42.20;;;14.30;95.00;;;;;;4591591;19;20027;-23
2023/05/09 03:49:05;;;;;;;45.53;39.30;;;14.30;95.00;;;;;;4591379;19;20010;-23
2023/05/09 03:50:39;;;;;;;46.93;37.40;;;14.40;95.20;;;;;;4593039;19;20015;-23
2023/05/09 03:52:10;;;;;;;47.85;36.20;;;14.50;94.80;;;;;;4593149;19;20039;-23
2023/05/09 03:53:44;;;;;;;47.85;35.50;;;14.60;94.80;;;;;;4591993;19;20050;-23
2023/05/09 03:55:16;;;;;;;49.50;39.47;;;14.60;94.60;;;;;;4592411;19;20014;-23
2023/05/09 03:56:47;;;;;;;49.42;35.25;;;14.60;94.60;;;;;;4592524;19;20011;-23
2023/05/09 03:58:19;;;;;;;47.93;36.47;;;14.70;94.70;;;;;;4593307;19;20014;-23
2023/05/09 03:59:52;;;;;;;47.27;34.70;;;14.70;94.60;;;;;;4590362;19;20058;-23
2023/05/09 04:01:23;;;;;;;43.63;32.92;;;14.70;94.60;;;;;;4590623;19;20013;-23
2023/05/09 04:02:55;;;;;;;43.57;33.30;;;14.70;94.60;;;;;;4591573;19;20010;-23
2023/05/09 04:04:27;;;;;;;46.67;35.13;;;14.70;94.70;;;;;;4591618;19;20350;-23
2023/05/09 04:05:59;;;;;;;;;;;14.70;94.70;;;;;;4590053;19;20032;-23
2023/05/09 04:07:30;;;;;;;50.08;36.55;;;14.80;94.80;;;;;;4590507;19;19918;-23
2023/05/09 04:09:01;;;;;;;52.63;38.00;;;14.80;94.70;;;;;;4589528;19;20002;-24
2023/05/09 04:10:33;;;;;;;52.10;35.80;;;14.80;94.80;;;;;;4592176;19;20012;-23
2023/05/09 04:12:06;;;;;;;50.80;35.70;;;14.80;94.80;;;;;;4592374;19;20043;-23
2023/05/09 04:13:39;;;;;;;40.33;30.47;;;14.80;94.90;;;;;;4590724;19;20041;-23
2023/05/09 04:15:10;;;;;;;44.08;31.40;;;14.80;94.90;;;;;;4590872;19;20066;-23
2023/05/09 04:16:42;;;;;;;43.90;33.00;;;14.80;94.90;;;;;;4590804;19;20007;-23
2023/05/09 04:18:13;;;;;;;45.05;32.40;;;14.80;94.90;;;;;;4589189;19;20454;-23
2023/05/09 04:19:45;;;;;;;41.63;31.00;;;14.80;95.00;;;;;;4589606;19;20010;-23
2023/05/09 04:21:20;;;;;;;42.37;29.80;;;14.90;95.30;;;;;;4590944;19;20090;-23
2023/05/09 04:22:51;;;;;;;41.67;29.23;;;14.90;95.40;;;;;;4590687;19;20022;-23
2023/05/09 04:24:23;;;;;;;39.75;26.85;;;14.90;95.30;;;;;;4588436;19;20017;-23
2023/05/09 04:25:55;;;;;;;33.67;23.63;;;14.90;95.50;;;;;;4590528;19;20015;-23
2023/05/09 04:27:27;;;;;;;27.70;22.00;;;14.90;95.80;;;;;;4590054;19;20021;-23
2023/05/09 04:28:58;;;;;;;31.77;21.25;;;14.90;96.00;;;;;;4589195;19;20007;-23
2023/05/09 04:30:29;;;;;;;28.65;20.67;;;14.90;96.20;;;;;;4589832;19;20331;-23
2023/05/09 04:32:01;;;;;;;;;;;14.80;96.40;;;;;;4589793;19;20372;-23
2023/05/09 04:33:33;;;;;;;25.65;17.20;;;14.80;96.60;;;;;;4589225;19;19939;-23
2023/05/09 04:35:07;;;;;;;19.10;14.57;;;14.80;96.70;;;;;;4589814;19;20349;-23
2023/05/09 04:36:39;;;;;;;18.27;13.17;;;14.80;96.90;;;;;;4588131;19;20345;-23
2023/05/09 04:38:11;;;;;;;18.52;13.80;;;14.80;97.10;;;;;;4588869;19;20010;-23
2023/05/09 04:39:42;;;;;;;;;;;14.90;97.30;;;;;;4589802;19;20014;-23
2023/05/09 04:41:13;;;;;;;18.70;14.13;;;14.80;97.40;;;;;;4586088;19;19949;-23
2023/05/09 04:42:45;;;;;;;22.08;15.30;;;14.80;97.40;;;;;;4587847;19;20070;-23
2023/05/09 04:44:17;;;;;;;21.70;14.23;;;14.90;97.50;;;;;;4590848;19;20038;-23
2023/05/09 04:45:49;;;;;;;19.67;14.30;;;14.90;97.60;;;;;;4589893;19;20135;-23
2023/05/09 04:47:20;;;;;;;23.35;14.95;;;14.90;97.60;;;;;;4589125;19;20007;-23
2023/05/09 04:48:52;;;;;;;21.50;15.48;;;14.90;97.70;;;;;;4589417;19;20021;-23
2023/05/09 04:50:23;;;;;;;17.77;13.00;;;15.00;97.60;;;;;;4589267;19;20031;-23
2023/05/09 04:51:54;;;;;;;17.48;13.20;;;15.00;97.70;;;;;;4587956;19;20011;-23
2023/05/09 04:53:27;;;;;;;19.70;14.02;;;15.00;97.70;;;;;;4588302;19;20019;-23
2023/05/09 04:54:58;;;;;;;18.87;14.07;;;15.10;97.80;;;;;;4587111;19;20085;-23
2023/05/09 04:56:29;;;;;;;18.90;14.20;;;15.10;97.80;;;;;;4588233;19;19999;-23
2023/05/09 05:00:27;;;;;;;21.83;14.40;;;15.20;97.80;;;;;;4589105;19;20010;-23
2023/05/09 05:01:59;;;;;;;;;;;15.30;97.80;;;;;;4588153;19;20025;-23
2023/05/09 05:03:30;;;;;;;20.97;15.03;;;15.30;97.90;;;;;;4587867;19;19918;-23
2023/05/09 05:05:01;;;;;;;21.15;14.63;;;15.30;97.80;;;;;;4587950;19;20039;-23
2023/05/09 05:06:32;;;;;;;20.05;14.48;;;15.30;97.80;;;;;;4586739;19;20365;-23
2023/05/09 05:08:04;;;;;;;19.40;14.40;;;15.30;97.80;;;;;;4590025;19;20011;-23
2023/05/09 05:09:35;;;;;;;19.52;14.32;;;15.40;97.90;;;;;;4590154;19;20088;-23
2023/05/09 05:11:06;;;;;;;19.17;14.43;;;15.40;98.00;;;;;;4589447;19;20075;-23
2023/05/09 05:12:38;;;;;;;23.20;13.93;;;15.40;98.00;;;;;;4589853;19;20019;-24
2023/05/09 05:14:10;;;;;;;18.97;13.70;;;15.50;98.00;;;;;;4588057;19;20512;-23
2023/05/09 05:15:42;;;;;;;16.83;12.35;;;15.50;98.00;;;;;;4588644;19;20014;-23
2023/05/09 05:17:13;;;;;;;17.73;12.88;;;15.50;98.00;;;;;;4588220;19;20015;-23
2023/05/09 05:18:44;;;;;;;16.48;12.27;;;15.50;98.00;;;;;;4588705;19;20365;-23
2023/05/09 05:20:15;;;;;;;18.60;12.57;;;15.50;98.00;;;;;;4589337;19;20014;-23
2023/05/09 05:21:46;;;;;;;15.95;12.02;;;15.50;97.90;;;;;;4589513;19;20014;-23
2023/05/09 05:23:18;;;;;;;14.95;11.25;;;15.60;97.90;;;;;;4589938;19;20003;-23
2023/05/09 05:24:50;;;;;;;14.40;11.40;;;15.60;97.90;;;;;;4587809;19;20019;-23
2023/05/09 05:26:22;;;;;;;17.23;11.95;;;15.60;97.80;;;;;;4588709;19;20011;-23
2023/05/09 05:27:55;;;;;;;17.63;13.15;;;15.60;97.90;;;;;;4589315;19;20010;-23
2023/05/09 05:29:26;;;;;;;17.73;12.65;;;15.60;98.00;;;;;;4589491;19;20015;-23
2023/05/09 05:30:58;;;;;;;21.42;13.05;;;15.60;98.00;;;;;;4587582;19;20006;-23
2023/05/09 05:32:29;;;;;;;19.00;13.38;;;15.60;98.10;;;;;;4588534;19;20070;-23
2023/05/09 05:34:00;;;;;;;20.02;12.70;;;15.60;98.10;;;;;;4587363;19;20010;-23
2023/05/09 05:35:32;;;;;;;17.40;12.50;;;15.60;98.20;;;;;;4589945;19;20018;-23
2023/05/09 05:37:04;;;;;;;17.17;12.97;;;15.60;98.20;;;;;;4593059;19;20015;-23
2023/05/09 05:38:38;;;;;;;18.20;13.03;;;15.60;98.30;;;;;;4593559;19;20029;-23
2023/05/09 05:40:09;;;;;;;17.67;12.80;;;15.70;98.40;;;;;;4594062;19;20010;-23
2023/05/09 05:41:40;;;;;;;16.75;12.52;;;15.60;98.30;;;;;;4593747;19;20010;-22
2023/05/09 05:43:12;;;;;;;15.52;11.35;;;15.70;98.40;;;;;;4592929;19;20026;-23
2023/05/09 05:44:43;;;;;;;17.35;12.35;;;15.70;98.40;;;;;;4593939;19;20041;-23
2023/05/09 05:46:16;;;;;;;15.05;10.70;;;15.80;98.40;;;;;;4592731;19;20011;-23
2023/05/09 05:47:47;;;;;;;14.02;10.45;;;16.00;98.80;;;;;;4593296;19;20003;-23
2023/05/09 05:49:18;;;;;;;12.18;9.75;;;16.00;98.30;;;;;;4593583;19;20476;-23
2023/05/09 05:50:49;;;;;;;14.82;10.20;;;16.00;98.30;;;;;;4593997;19;20441;-23
2023/05/09 05:52:22;;;;;;;12.43;10.30;;;15.90;98.40;;;;;;4593922;19;20032;-23
2023/05/09 05:53:54;;;;;;;13.88;10.18;;;15.90;98.50;;;;;;4592810;19;20017;-23
2023/05/09 05:55:25;;;;;;;14.57;11.38;;;15.80;98.40;;;;;;4593502;19;20047;-23
2023/05/09 05:56:58;;;;;;;15.80;11.37;;;15.80;98.50;;;;;;4593571;19;20077;-23
2023/05/09 05:58:28;;;;;;;16.38;10.88;;;15.80;98.70;;;;;;4593595;19;19999;-23
2023/05/09 06:00:01;;;;;;;16.95;11.65;;;15.80;98.60;;;;;;4593126;19;20018;-23
2023/05/09 06:01:33;;;;;;;18.63;11.43;;;15.70;98.40;;;;;;4593555;19;20038;-23
2023/05/09 06:03:05;;;;;;;15.30;10.60;;;15.70;98.60;;;;;;4593840;19;20456;-23
2023/05/09 06:04:36;;;;;;;15.25;9.90;;;15.70;98.60;;;;;;4593252;19;20007;-23
2023/05/09 06:06:09;;;;;;;13.60;9.57;;;15.70;98.60;;;;;;4593087;19;20039;-23
2023/05/09 06:07:42;;;;;;;12.00;8.23;;;15.70;98.50;;;;;;4591777;19;20015;-23
2023/05/09 06:09:16;;;;;;;11.60;8.20;;;15.70;98.40;;;;;;4592471;19;20521;-23
2023/05/09 06:10:48;;;;;;;9.77;7.27;;;15.70;98.20;;;;;;4592811;19;20409;-23
2023/05/09 06:12:21;;;;;;;12.27;8.32;;;15.70;98.20;;;;;;4592719;19;20051;-23
2023/05/09 06:13:52;;;;;;;10.43;7.65;;;15.70;98.30;;;;;;4593214;19;20401;-23
2023/05/09 06:15:25;;;;;;;10.10;7.20;;;15.70;98.10;;;;;;4593030;19;20018;-23
2023/05/09 06:16:58;;;;;;;11.77;7.70;;;15.70;97.70;;;;;;4592776;19;20014;-23
2023/05/09 06:18:31;;;;;;;10.30;6.60;;;15.70;97.60;;;;;;4591587;19;20049;-23
2023/05/09 06:20:02;;;;;;;8.45;6.03;;;15.80;97.50;;;;;;4592221;19;20015;-23
2023/05/09 06:21:34;;;;;;;8.83;6.53;;;15.80;97.50;;;;;;4591621;19;20353;-23
2023/05/09 06:23:07;;;;;;;10.17;6.40;;;15.70;97.60;;;;;;4591712;19;20014;-23
2023/05/09 06:24:38;;;;;;;8.77;6.35;;;15.80;97.70;;;;;;4592473;19;20480;-23
2023/05/09 06:26:13;;;;;;;11.18;6.13;;;15.80;97.40;;;;;;4592567;19;20078;-23
2023/05/09 06:27:46;;;;;;;7.80;6.00;;;15.80;97.40;;;;;;4593137;19;20460;-23
2023/05/09 06:29:17;;;;;;;8.77;6.25;;;15.80;97.30;;;;;;4592601;19;20011;-23
2023/05/09 06:30:48;;;;;;;10.10;6.82;;;15.80;97.00;;;;;;4592834;19;20049;-23
2023/05/09 06:32:20;;;;;;;11.35;8.25;;;15.80;96.80;;;;;;4592473;19;20018;-23
2023/05/09 06:33:51;;;;;;;;;;;15.80;96.90;;;;;;4592761;19;20035;-23
2023/05/09 06:35:22;;;;;;;11.53;8.83;;;15.80;96.80;;;;;;4592050;19;19933;-23
2023/05/09 06:36:53;;;;;;;9.77;7.20;;;15.90;96.50;;;;;;4592796;19;20464;-23
2023/05/09 06:38:26;;;;;;;9.33;6.80;;;15.90;96.70;;;;;;4592595;19;20025;-23
2023/05/09 06:39:58;;;;;;;9.90;7.43;;;15.90;96.40;;;;;;4592220;19;20412;-23
2023/05/09 06:41:29;;;;;;;9.15;6.80;;;15.90;96.50;;;;;;4592591;19;20002;-23
2023/05/09 06:43:00;;;;;;;8.90;6.75;;;15.90;96.40;;;;;;4591524;19;20011;-23
2023/05/09 06:44:32;;;;;;;11.65;6.78;;;15.80;96.30;;;;;;4592522;19;20007;-23
2023/05/09 06:46:03;;;;;;;6.78;5.00;;;15.80;96.40;;;;;;4591512;19;20018;-23
2023/05/09 06:47:35;;;;;;;7.72;5.75;;;15.80;96.00;;;;;;4591070;19;20488;-23
2023/05/09 06:49:06;;;;;;;;;;;15.80;95.70;;;;;;4593540;19;20011;-23
2023/05/09 06:50:37;;;;;;;7.90;4.97;;;15.80;95.90;;;;;;4592447;19;19921;-23
2023/05/09 06:52:09;;;;;;;9.02;4.90;;;15.90;95.80;;;;;;4589330;19;20033;-23
2023/05/09 06:53:42;;;;;;;8.73;4.97;;;15.90;96.10;;;;;;4589898;19;20015;-23
2023/05/09 06:55:14;;;;;;;6.57;4.57;;;16.00;96.10;;;;;;4590902;19;20014;-23
2023/05/09 06:56:46;;;;;;;8.00;4.67;;;15.90;96.10;;;;;;4591547;19;20488;-23
2023/05/09 07:06:51;;;;;;;6.60;4.47;;;16.00;95.20;;;;;;4593476;19;19978;-23
2023/05/09 07:08:22;;;;;;;6.67;4.43;;;16.00;94.80;;;;;;4591634;19;20011;-23
2023/05/09 07:09:54;;;;;;;6.53;3.92;;;16.00;94.40;;;;;;4590864;19;20033;-23
2023/05/09 07:11:26;;;;;;;8.23;5.23;;;16.00;94.70;;;;;;4591006;19;20015;-23
2023/05/09 07:12:58;;;;;;;7.38;5.18;;;16.00;94.90;;;;;;4590578;19;20358;-23
2023/05/09 07:14:29;;;;;;;8.45;5.80;;;15.90;94.90;;;;;;4590633;19;20014;-23
2023/05/09 07:16:00;;;;;;;6.65;4.35;;;15.90;94.90;;;;;;4592352;19;20006;-23
2023/05/09 07:22:57;;;;;;;8.00;5.00;;;16.10;95.00;;;;;;4590092;19;19979;-23
2023/05/09 07:24:28;;;;;;;7.32;4.15;;;16.10;95.00;;;;;;4592104;19;19999;-23
2023/05/09 07:26:00;;;;;;;8.05;4.15;;;16.00;95.00;;;;;;4590672;19;20033;-23
2023/05/09 07:27:31;;;;;;;5.57;3.85;;;16.00;94.40;;;;;;4590931;19;20014;-23
2023/05/09 07:29:05;;;;;;;6.15;4.07;;;16.00;94.50;;;;;;4591596;19;20040;-23
2023/05/09 07:48:21;;;;;;;5.53;3.50;;;16.00;93.40;;;;;;4586694;19;20002;-23
2023/05/09 07:49:53;;;;;;;7.85;4.00;;;16.10;92.80;;;;;;4590085;19;20454;-23
2023/05/09 07:51:24;;;;;;;7.45;4.28;;;16.10;93.00;;;;;;4590564;19;19998;-23
2023/05/09 07:52:55;;;;;;;4.40;3.20;;;16.20;93.00;;;;;;4591122;19;20003;-23
2023/05/09 07:54:28;;;;;;;5.70;3.25;;;16.20;92.90;;;;;;4588745;19;20391;-23
2023/05/09 07:55:59;;;;;;;5.00;3.40;;;16.20;92.70;;;;;;4590500;19;20041;-23
2023/05/09 07:57:31;;;;;;;8.32;3.42;;;16.20;92.40;;;;;;4590744;19;20002;-23
2023/05/09 07:59:05;;;;;;;5.05;3.00;;;16.30;92.50;;;;;;4587925;19;20015;-23
2023/05/09 08:00:39;;;;;;;5.75;2.65;;;16.30;92.50;;;;;;4591068;19;20031;-23
2023/05/09 08:02:10;;;;;;;5.28;2.70;;;16.40;92.50;;;;;;4589256;19;20022;-23
2023/05/09 08:03:42;;;;;;;5.57;2.70;;;16.50;92.40;;;;;;4590471;19;20014;-23
2023/05/09 08:05:14;;;;;;;4.90;2.90;;;16.50;92.00;;;;;;4589105;19;20019;-23
2023/05/09 08:06:45;;;;;;;4.20;2.53;;;16.50;92.10;;;;;;4589399;19;20026;-23
2023/05/09 08:08:17;;;;;;;5.93;3.22;;;16.60;92.50;;;;;;4590486;19;20018;-23
2023/05/09 08:09:51;;;;;;;5.10;2.60;;;16.70;91.80;;;;;;4589618;19;20025;-23
2023/05/09 08:11:22;;;;;;;5.13;2.85;;;16.60;91.80;;;;;;4588938;19;20426;-23
2023/05/09 08:12:54;;;;;;;4.80;2.85;;;16.60;92.30;;;;;;4590171;19;20021;-23
2023/05/09 08:14:57;;;;;;;5.45;3.05;;;16.80;92.90;;;;;;4590136;19;20456;-23
2023/05/09 08:16:31;;;;;;;6.32;2.95;;;16.90;92.50;;;;;;4590094;19;20044;-23
2023/05/09 08:18:03;;;;;;;4.88;3.47;;;17.00;92.80;;;;;;4590839;19;20381;-23
2023/05/09 08:19:35;;;;;;;5.05;3.42;;;17.10;92.30;;;;;;4589067;19;20026;-23
2023/05/09 08:21:07;;;;;;;4.93;4.03;;;17.20;92.10;;;;;;4589716;19;20025;-23
2023/05/09 08:22:39;;;;;;;4.60;3.15;;;17.20;92.00;;;;;;4590842;19;20006;-23
2023/05/09 08:24:34;;;;;;;4.13;2.80;;;17.20;91.80;;;;;;4588350;19;20010;-23
2023/05/09 08:26:07;;;;;;;4.90;2.40;;;17.20;92.00;;;;;;4589538;19;20081;-23
2023/05/09 08:27:39;;;;;;;4.13;2.33;;;17.20;91.80;;;;;;4588680;19;20021;-24
2023/05/09 08:29:13;;;;;;;3.95;2.38;;;17.20;91.70;;;;;;4588938;19;20018;-23